Time;durP1;ratioP1;P1;durP2;ratioP2;P2;SDS_P1;SDS_P2;PMS_P1;PMS_P2;Temp;Humidity;BMP_temperature;BMP_pressure;BME280_temperature;BME280_humidity;BME280_pressure;Samples;Min_cycle;Max_cycle;Signal;HPM_P1;HPM_P2
2022/06/11 00:02:13;;;;;;;9.45;2.00;;;12.60;1.00;;;;;;4766563;30;20090;-74
2022/06/11 00:04:46;;;;;;;8.43;1.85;;;12.40;1.00;;;;;;4770976;30;20491;-74
2022/06/11 00:07:26;;;;;;;8.27;2.00;;;12.50;1.00;;;;;;4780590;30;20031;-75
2022/06/11 00:09:54;;;;;;;;;;;12.50;1.00;;;;;;4771120;30;20114;-74
2022/06/11 00:12:23;;;;;;;13.77;2.38;;;12.30;1.00;;;;;;4771039;30;19910;-74
2022/06/11 00:14:57;;;;;;;7.80;1.70;;;12.20;1.00;;;;;;4773197;30;20115;-74
2022/06/11 00:17:38;;;;;;;6.80;2.33;;;12.30;1.00;;;;;;4780624;30;20024;-74
2022/06/11 00:20:15;;;;;;;9.90;2.25;;;12.20;1.00;;;;;;4771058;30;20066;-74
2022/06/11 00:22:41;;;;;;;10.88;1.80;;;12.10;1.00;;;;;;4777485;30;20098;-74
2022/06/11 00:25:28;;;;;;;10.52;2.35;;;12.00;1.00;;;;;;4777231;30;20118;-74
2022/06/11 00:28:00;;;;;;;7.00;2.20;;;12.00;1.00;;;;;;4771041;30;20032;-75
2022/06/11 00:30:49;;;;;;;9.98;1.80;;;12.10;1.00;;;;;;4771464;30;20035;-74
2022/06/11 00:33:29;;;;;;;10.55;1.95;;;12.00;1.00;;;;;;4770928;30;20058;-74
2022/06/11 00:35:59;;;;;;;10.07;1.80;;;11.90;1.00;;;;;;4770651;30;20055;-74
2022/06/11 00:38:25;;;;;;;12.13;2.72;;;11.80;1.00;;;;;;4770846;30;20589;-74
2022/06/11 00:41:05;;;;;;;14.30;2.10;;;11.90;1.00;;;;;;4782681;24;20087;-73
2022/06/11 00:43:30;;;;;;;10.18;1.90;;;11.80;1.00;;;;;;4786531;30;20016;-74
2022/06/11 00:46:20;;;;;;;11.25;2.03;;;11.70;1.00;;;;;;4784474;30;20365;-74
2022/06/11 00:48:58;;;;;;;6.82;2.10;;;11.60;1.00;;;;;;4788696;30;20384;-74
2022/06/11 00:51:27;;;;;;;4.47;1.60;;;11.50;1.00;;;;;;4787851;30;20032;-74
2022/06/11 00:53:58;;;;;;;14.60;2.75;;;11.60;1.00;;;;;;4772330;30;20122;-74
2022/06/11 00:56:44;;;;;;;7.50;1.73;;;11.40;1.00;;;;;;4788367;30;20126;-74
2022/06/11 00:59:17;;;;;;;9.05;2.80;;;11.40;1.00;;;;;;4781246;30;20121;-74
2022/06/11 01:01:47;;;;;;;7.93;1.63;;;11.30;1.00;;;;;;4768042;30;20032;-74
2022/06/11 01:04:34;;;;;;;9.93;2.15;;;11.30;1.00;;;;;;4782285;30;20032;-74
2022/06/11 01:07:45;;;;;;;7.03;1.85;;;11.50;1.00;;;;;;4776277;30;20093;-74
2022/06/11 01:11:27;;;;;;;4.68;1.55;;;11.20;1.00;;;;;;4788675;30;20031;-74
2022/06/11 01:14:10;;;;;;;9.10;1.92;;;11.30;1.00;;;;;;4731681;30;20477;-74
2022/06/11 01:17:09;;;;;;;9.50;2.40;;;11.30;1.00;;;;;;4787131;30;20035;-74
2022/06/11 01:20:02;;;;;;;8.43;1.80;;;11.20;8.30;;;;;;4784268;29;20035;-74
2022/06/11 01:26:01;;;;;;;8.00;2.07;;;11.20;23.40;;;;;;4763080;30;20131;-75
2022/06/11 01:28:45;;;;;;;11.88;2.42;;;11.10;22.50;;;;;;4787652;30;20043;-74
2022/06/11 01:31:39;;;;;;;13.38;2.30;;;11.10;28.30;;;;;;4776641;30;20438;-74
2022/06/11 01:34:48;;;;;;;8.45;2.75;;;11.10;40.00;;;;;;4787675;30;20032;-74
2022/06/11 01:37:30;;;;;;;8.43;2.03;;;11.00;48.10;;;;;;4787790;30;20417;-74
2022/06/11 01:40:16;;;;;;;4.38;1.80;;;11.10;69.70;;;;;;4778437;30;20169;-74
2022/06/11 01:42:59;;;;;;;8.68;2.13;;;11.00;77.10;;;;;;4785351;30;20481;-74
2022/06/11 01:45:39;;;;;;;8.90;1.98;;;11.00;87.50;;;;;;4775508;30;20050;-74
2022/06/11 01:48:24;;;;;;;8.35;2.53;;;10.90;91.30;;;;;;4787567;30;20036;-74
2022/06/11 01:50:57;;;;;;;5.07;1.80;;;10.90;96.80;;;;;;4787837;30;20034;-74
2022/06/11 01:53:45;;;;;;;8.27;1.95;;;11.00;99.90;;;;;;4767517;30;20523;-74
2022/06/11 01:56:44;;;;;;;12.45;1.90;;;11.00;99.90;;;;;;4777806;30;20039;-74
2022/06/11 01:59:49;;;;;;;11.18;2.22;;;10.80;99.90;;;;;;4777539;30;20092;-74
2022/06/11 02:02:48;;;;;;;11.02;2.17;;;10.90;99.90;;;;;;4787668;30;20048;-74
2022/06/11 02:05:37;;;;;;;12.15;2.60;;;10.90;99.90;;;;;;4787348;30;20065;-74
2022/06/11 02:08:14;;;;;;;8.18;2.65;;;11.00;99.90;;;;;;4787357;30;20027;-74
2022/06/11 02:10:48;;;;;;;7.95;2.05;;;11.00;99.90;;;;;;4787288;30;20045;-74
2022/06/11 02:13:41;;;;;;;9.45;2.80;;;10.90;99.90;;;;;;4787406;30;20393;-74
2022/06/11 02:16:12;;;;;;;10.05;2.58;;;11.10;99.90;;;;;;4774910;30;20032;-74
2022/06/11 02:18:48;;;;;;;7.25;2.10;;;11.10;99.90;;;;;;4787127;30;20106;-74
2022/06/11 02:21:23;;;;;;;17.90;2.60;;;11.20;99.90;;;;;;4775060;30;20114;-74
2022/06/11 02:24:32;;;;;;;10.18;2.47;;;11.30;99.90;;;;;;4787234;30;20119;-74
2022/06/11 02:27:18;;;;;;;12.18;1.92;;;11.30;99.90;;;;;;4702903;30;20062;-74
2022/06/11 02:29:52;;;;;;;11.23;3.20;;;11.30;99.90;;;;;;4775082;30;20169;-73
2022/06/11 02:32:23;;;;;;;13.50;2.85;;;11.40;99.90;;;;;;4778225;30;20493;-74
2022/06/11 02:34:56;;;;;;;18.88;2.97;;;11.60;99.90;;;;;;4778313;30;20043;-74
2022/06/11 02:37:35;;;;;;;8.68;2.67;;;11.70;99.90;;;;;;4790739;30;20043;-74
2022/06/11 02:40:16;;;;;;;7.82;2.67;;;11.80;99.90;;;;;;4779794;30;20076;-74
2022/06/11 02:42:46;;;;;;;11.63;2.50;;;12.00;99.90;;;;;;4776829;30;20122;-74
2022/06/11 02:45:15;;;;;;;9.77;2.45;;;12.00;99.90;;;;;;4790673;30;20031;-74
2022/06/11 02:47:48;;;;;;;17.35;3.38;;;11.90;99.90;;;;;;4790507;30;20036;-73
2022/06/11 02:50:33;;;;;;;15.10;2.63;;;12.00;99.90;;;;;;4780981;30;20110;-74
2022/06/11 02:53:20;;;;;;;18.92;2.67;;;12.20;99.90;;;;;;4786768;30;20040;-74
2022/06/11 02:55:55;;;;;;;13.18;3.15;;;12.30;99.90;;;;;;4779900;30;20055;-74
2022/06/11 02:58:20;;;;;;;15.63;2.67;;;12.30;99.90;;;;;;4790258;30;20050;-74
2022/06/11 03:00:50;;;;;;;11.88;3.00;;;12.20;99.90;;;;;;4790310;30;20465;-74
2022/06/11 03:03:16;;;;;;;15.73;3.38;;;12.30;99.90;;;;;;4790193;30;20035;-74
2022/06/11 03:05:42;;;;;;;11.18;3.22;;;12.20;99.90;;;;;;4790224;30;20038;-74
2022/06/11 03:08:11;;;;;;;13.90;2.72;;;12.20;99.90;;;;;;4790261;30;20031;-75
2022/06/11 03:10:43;;;;;;;15.30;2.72;;;12.10;99.90;;;;;;4782177;30;20019;-74
2022/06/11 03:13:11;;;;;;;11.93;2.92;;;12.00;99.90;;;;;;4790393;30;20492;-74
2022/06/11 03:15:46;;;;;;;10.90;2.63;;;12.00;99.90;;;;;;4789983;30;20058;-74
2022/06/11 03:18:15;;;;;;;8.75;3.65;;;12.20;99.90;;;;;;4790100;30;20458;-74
2022/06/11 03:20:46;;;;;;;17.27;3.10;;;12.10;99.90;;;;;;4789982;30;20031;-74
2022/06/11 03:23:15;;;;;;;14.10;3.47;;;12.20;99.90;;;;;;4779655;30;20027;-74
2022/06/11 03:25:46;;;;;;;16.45;2.97;;;12.20;99.90;;;;;;4789451;30;20575;-74
2022/06/11 03:28:30;;;;;;;14.45;2.92;;;12.30;99.90;;;;;;4784768;30;20080;-74
2022/06/11 03:31:05;;;;;;;17.83;2.65;;;12.30;99.90;;;;;;4789239;30;20035;-74
2022/06/11 03:33:32;;;;;;;13.65;2.72;;;12.20;99.90;;;;;;4786380;30;20457;-74
2022/06/11 03:36:16;;;;;;;16.40;3.45;;;12.20;99.90;;;;;;4781475;30;20058;-74
2022/06/11 03:38:49;;;;;;;18.05;3.30;;;12.30;99.90;;;;;;4789665;30;20063;-74
2022/06/11 03:41:16;;;;;;;18.65;3.30;;;12.40;99.90;;;;;;4789398;30;20030;-74
2022/06/11 03:47:13;;;;;;;13.15;3.08;;;12.60;99.90;;;;;;4722205;30;20498;-74
2022/06/11 03:49:44;;;;;;;13.82;3.50;;;12.80;99.90;;;;;;4782258;30;20509;-73
2022/06/11 03:52:13;;;;;;;17.58;3.78;;;12.90;99.90;;;;;;4777489;30;20487;-74
2022/06/11 03:54:44;;;;;;;19.95;3.72;;;13.00;99.90;;;;;;4789345;30;20079;-74
2022/06/11 03:57:13;;;;;;;14.35;3.63;;;13.10;99.90;;;;;;4789326;30;20505;-74
2022/06/11 03:59:38;;;;;;;17.27;3.33;;;13.20;99.90;;;;;;4778546;30;20023;-74
2022/06/11 04:02:16;;;;;;;15.63;3.22;;;13.40;99.90;;;;;;4787395;30;20024;-74
2022/06/11 04:04:45;;;;;;;22.33;3.50;;;13.50;99.90;;;;;;4789366;30;20058;-74
2022/06/11 04:07:34;;;;;;;11.73;2.90;;;14.00;76.20;;;;;;4789384;30;20027;-74
2022/06/11 04:10:03;;;;;;;16.80;3.00;;;14.40;1.00;;;;;;4788267;30;20045;-74
2022/06/11 04:12:34;;;;;;;19.13;3.57;;;15.00;1.00;;;;;;4788730;30;20035;-74
2022/06/11 04:15:05;;;;;;;13.93;3.25;;;14.90;1.00;;;;;;4787974;30;20046;-74
2022/06/11 04:17:32;;;;;;;14.95;3.55;;;15.90;1.00;;;;;;4789313;30;20092;-74
2022/06/11 04:19:59;;;;;;;18.80;3.47;;;15.80;99.90;;;;;;4789062;30;20031;-74
2022/06/11 04:22:24;;;;;;;15.27;3.70;;;15.70;99.90;;;;;;4777034;30;20423;-74
2022/06/11 04:25:08;;;;;;;18.58;3.45;;;16.90;99.90;;;;;;4788930;30;20492;-74
2022/06/11 04:27:40;;;;;;;13.55;3.05;;;17.80;99.90;;;;;;4788801;30;20397;-74
2022/06/11 04:30:12;;;;;;;17.10;3.70;;;18.20;99.90;;;;;;4789008;30;20037;-74
2022/06/11 04:32:40;;;;;;;13.32;3.28;;;17.60;99.90;;;;;;4788811;30;20015;-74
2022/06/11 04:35:09;;;;;;;21.75;3.58;;;18.50;99.90;;;;;;4788746;30;20134;-74
2022/06/11 04:37:47;;;;;;;16.13;4.05;;;18.40;99.90;;;;;;4788826;30;20477;-74
2022/06/11 04:40:45;;;;;;;9.95;3.03;;;17.80;99.90;;;;;;4788609;30;20094;-74
2022/06/11 04:43:10;;;;;;;14.18;2.78;;;19.90;99.90;;;;;;4787875;30;20059;-74
2022/06/11 04:46:08;;;;;;;13.95;2.80;;;19.70;99.90;;;;;;4788623;30;20377;-74
2022/06/11 04:48:40;;;;;;;12.13;3.72;;;21.20;99.90;;;;;;4773555;30;20035;-74
2022/06/11 04:51:10;;;;;;;12.05;2.80;;;19.30;99.90;;;;;;4788595;30;20473;-74
2022/06/11 04:53:40;;;;;;;11.98;3.90;;;19.10;99.90;;;;;;4776378;30;20034;-74
2022/06/11 04:56:15;;;;;;;12.02;2.75;;;21.20;99.90;;;;;;4788176;29;20039;-74
2022/06/11 04:58:48;;;;;;;17.85;3.70;;;21.60;99.90;;;;;;4776241;30;20031;-74
2022/06/11 05:01:19;;;;;;;10.48;3.15;;;19.90;99.90;;;;;;4787879;30;20067;-74
2022/06/11 05:03:54;;;;;;;14.80;3.10;;;21.80;99.90;;;;;;4775935;30;20035;-75
2022/06/11 05:06:31;;;;;;;15.07;3.00;;;23.20;99.90;;;;;;4788249;30;20071;-74
2022/06/11 05:09:02;;;;;;;9.77;2.67;;;24.70;99.90;;;;;;4776919;30;20062;-75
2022/06/11 05:11:31;;;;;;;14.55;3.78;;;24.40;78.40;;;;;;4788121;30;20200;-74
2022/06/11 05:14:00;;;;;;;17.88;3.60;;;25.80;53.40;;;;;;4775732;30;20099;-75
2022/06/11 05:16:28;;;;;;;10.98;3.05;;;26.10;37.40;;;;;;4788005;30;20039;-75
2022/06/11 05:18:54;;;;;;;16.30;2.97;;;27.20;30.80;;;;;;4775230;30;20058;-75
2022/06/11 05:21:23;;;;;;;17.58;3.40;;;27.20;30.80;;;;;;4787918;30;20127;-75
2022/06/11 05:23:49;;;;;;;13.73;3.27;;;24.80;31.70;;;;;;4788115;30;20023;-75
2022/06/11 05:26:30;;;;;;;15.98;3.42;;;23.90;57.10;;;;;;4787843;30;20540;-75
2022/06/11 05:29:01;;;;;;;14.55;3.22;;;27.20;41.00;;;;;;4787931;30;20038;-75
2022/06/11 05:31:29;;;;;;;17.63;3.65;;;28.20;19.70;;;;;;4787936;30;20106;-75
2022/06/11 05:34:07;;;;;;;13.73;3.10;;;29.20;22.20;;;;;;4787720;30;20035;-75
2022/06/11 05:36:40;;;;;;;14.63;3.40;;;27.30;19.20;;;;;;4787898;30;20047;-72
2022/06/11 05:39:12;;;;;;;11.18;2.83;;;23.80;46.10;;;;;;4785190;30;20108;-72
2022/06/11 05:41:46;;;;;;;14.43;3.25;;;23.90;65.40;;;;;;4787203;30;20050;-72
2022/06/11 05:44:12;;;;;;;12.50;3.25;;;27.70;25.50;;;;;;4787696;30;20061;-73
2022/06/11 05:46:41;;;;;;;16.15;3.40;;;30.40;7.70;;;;;;4774994;30;20064;-73
2022/06/11 05:49:16;;;;;;;11.15;2.78;;;31.30;1.00;;;;;;4787465;30;20122;-72
2022/06/11 05:52:14;;;;;;;16.25;2.95;;;31.70;1.00;;;;;;4787311;30;20032;-73
2022/06/11 05:54:48;;;;;;;10.40;2.45;;;32.20;1.00;;;;;;4787442;30;20035;-73
2022/06/11 05:57:34;;;;;;;13.07;2.63;;;32.70;1.00;;;;;;4787708;30;20035;-73
2022/06/11 06:00:08;;;;;;;12.52;2.60;;;33.20;1.00;;;;;;4787603;30;20031;-73
2022/06/11 06:02:40;;;;;;;12.15;2.88;;;33.60;1.00;;;;;;4787485;30;20059;-73
2022/06/11 06:05:17;;;;;;;14.40;3.35;;;33.50;1.00;;;;;;4787484;30;20031;-73
2022/06/11 06:07:46;;;;;;;9.10;2.65;;;34.50;1.00;;;;;;4786794;30;20084;-74
2022/06/11 06:10:17;;;;;;;13.82;2.60;;;34.90;1.00;;;;;;4787344;30;20023;-73
2022/06/11 06:12:43;;;;;;;15.63;3.05;;;35.10;1.00;;;;;;4787117;30;20108;-73
2022/06/11 06:15:24;;;;;;;11.80;2.78;;;35.30;1.00;;;;;;4787074;30;20096;-73
2022/06/11 06:17:57;;;;;;;9.85;2.65;;;36.10;1.00;;;;;;4787139;30;20036;-73
2022/06/11 06:20:26;;;;;;;11.20;2.65;;;35.20;1.00;;;;;;4787199;30;20023;-73
2022/06/11 06:23:15;;;;;;;11.60;2.70;;;35.80;1.00;;;;;;4782201;30;20540;-73
2022/06/11 06:25:46;;;;;;;9.57;2.60;;;36.10;1.00;;;;;;4787218;30;20514;-73
2022/06/11 06:28:18;;;;;;;10.63;2.30;;;37.20;1.00;;;;;;4786977;30;20084;-73
2022/06/11 06:30:46;;;;;;;10.77;2.90;;;37.60;1.00;;;;;;4787084;30;20469;-73
2022/06/11 06:33:12;;;;;;;9.37;2.90;;;38.00;1.00;;;;;;4786997;30;20035;-73
2022/06/11 06:35:43;;;;;;;13.57;2.78;;;37.70;1.00;;;;;;4786829;30;20338;-73
2022/06/11 06:38:09;;;;;;;9.15;2.47;;;32.30;1.00;;;;;;4787229;30;20072;-73
2022/06/11 06:40:42;;;;;;;12.13;2.58;;;33.60;1.00;;;;;;4786990;30;20032;-73
2022/06/11 06:43:10;;;;;;;13.40;2.88;;;33.60;1.00;;;;;;4783156;30;20048;-73
2022/06/11 06:45:36;;;;;;;8.13;2.50;;;35.90;1.00;;;;;;4777370;30;20058;-73
2022/06/11 06:48:02;;;;;;;8.45;2.58;;;37.50;1.00;;;;;;4785146;30;21705;-73
2022/06/11 06:50:36;;;;;;;11.13;2.88;;;37.80;1.00;;;;;;4786936;30;20027;-73
2022/06/11 06:53:11;;;;;;;11.23;2.90;;;36.90;1.00;;;;;;4786866;30;20063;-74
2022/06/11 06:55:48;;;;;;;10.55;2.35;;;32.50;1.00;;;;;;4786880;30;20063;-74
2022/06/11 06:58:20;;;;;;;11.02;2.47;;;34.40;1.00;;;;;;4787044;30;20085;-73
2022/06/11 07:01:12;;;;;;;9.25;2.08;;;33.20;1.00;;;;;;4786623;30;20027;-74
2022/06/11 07:03:41;;;;;;;12.15;2.50;;;34.10;1.00;;;;;;4786408;30;20031;-73
2022/06/11 07:06:06;;;;;;;10.70;2.38;;;32.50;1.00;;;;;;4787077;30;20027;-73
2022/06/11 07:08:46;;;;;;;10.88;2.65;;;33.80;1.00;;;;;;4786656;30;20123;-73
2022/06/11 07:11:15;;;;;;;6.28;2.45;;;36.00;1.00;;;;;;4787189;30;20093;-73
2022/06/11 07:13:51;;;;;;;16.13;2.80;;;38.40;1.00;;;;;;4783100;30;20031;-73
2022/06/11 07:16:25;;;;;;;14.25;2.42;;;39.30;1.00;;;;;;4778984;30;20042;-73
2022/06/11 07:18:57;;;;;;;9.35;2.20;;;40.30;1.00;;;;;;4788621;29;20035;-73
2022/06/11 07:21:30;;;;;;;8.13;2.05;;;39.00;1.00;;;;;;4790108;30;20032;-73
2022/06/11 07:24:12;;;;;;;8.93;2.45;;;36.80;1.00;;;;;;4789910;30;20069;-74
2022/06/11 07:26:50;;;;;;;10.30;2.45;;;37.90;1.00;;;;;;4789930;30;20062;-74
2022/06/11 07:29:51;;;;;;;8.77;2.42;;;39.40;1.00;;;;;;4790008;30;20023;-73
2022/06/11 07:32:25;;;;;;;8.32;2.33;;;40.20;1.00;;;;;;4789685;30;20055;-73
2022/06/11 07:35:19;;;;;;;10.00;2.53;;;38.50;1.00;;;;;;4779486;30;20040;-73
2022/06/11 07:37:57;;;;;;;11.77;2.33;;;40.10;1.00;;;;;;4788755;30;20047;-73
2022/06/11 07:40:26;;;;;;;8.40;1.95;;;40.40;1.00;;;;;;4789838;30;20027;-73
2022/06/11 07:43:07;;;;;;;7.80;1.77;;;38.70;1.00;;;;;;4788514;30;20051;-73
2022/06/11 07:45:44;;;;;;;7.00;2.00;;;38.80;1.00;;;;;;4789707;30;20035;-73
2022/06/11 07:48:19;;;;;;;10.32;2.53;;;39.40;1.00;;;;;;4776885;30;20568;-73
2022/06/11 07:50:58;;;;;;;10.00;2.03;;;41.60;1.00;;;;;;4789637;30;20146;-73
2022/06/11 07:53:23;;;;;;;8.03;2.20;;;41.80;1.00;;;;;;4789490;30;20092;-74
2022/06/11 07:55:54;;;;;;;8.38;2.10;;;40.40;1.00;;;;;;4789366;30;20043;-74
2022/06/11 07:58:24;;;;;;;9.52;2.38;;;43.00;1.00;;;;;;4789411;30;20077;-73
2022/06/11 08:00:54;;;;;;;7.70;2.85;;;40.20;1.00;;;;;;4789387;30;20088;-73
2022/06/11 08:03:37;;;;;;;8.38;2.22;;;39.80;1.00;;;;;;4789353;30;20038;-74
2022/06/11 08:09:01;;;;;;;10.55;3.08;;;39.60;1.00;;;;;;4772286;30;20072;-73
2022/06/11 08:11:29;;;;;;;8.38;2.20;;;40.70;1.00;;;;;;4789271;30;20031;-73
2022/06/11 08:13:58;;;;;;;10.60;2.20;;;41.90;1.00;;;;;;4789095;30;20042;-73
2022/06/11 08:16:26;;;;;;;8.60;2.20;;;40.60;1.00;;;;;;4789207;30;20598;-73
2022/06/11 08:18:58;;;;;;;10.60;2.38;;;41.10;1.00;;;;;;4785076;30;20044;-73
2022/06/11 08:21:26;;;;;;;7.05;2.38;;;42.60;1.00;;;;;;4788880;30;20174;-73
2022/06/11 08:24:01;;;;;;;6.63;1.92;;;42.80;1.00;;;;;;4788930;30;20031;-73
2022/06/11 08:26:27;;;;;;;8.07;2.22;;;41.90;1.00;;;;;;4789088;30;20031;-74
2022/06/11 08:28:59;;;;;;;8.93;2.30;;;42.80;1.00;;;;;;4789115;30;20023;-74
2022/06/11 08:31:27;;;;;;;5.18;1.67;;;44.30;1.00;;;;;;4788802;30;20042;-73
2022/06/11 08:33:55;;;;;;;7.73;2.10;;;44.00;1.00;;;;;;4788538;30;20058;-73
2022/06/11 08:36:21;;;;;;;8.73;1.83;;;43.70;1.00;;;;;;4788681;30;20028;-73
2022/06/11 08:38:56;;;;;;;7.60;1.90;;;43.70;1.00;;;;;;4788664;30;20039;-73
2022/06/11 08:41:37;;;;;;;8.95;1.83;;;44.90;1.00;;;;;;4788211;30;20103;-74
2022/06/11 08:44:18;;;;;;;7.10;1.88;;;44.40;1.00;;;;;;4788673;30;20043;-74
2022/06/11 08:46:51;;;;;;;9.15;2.17;;;44.30;1.00;;;;;;4776083;30;20530;-73
2022/06/11 08:49:52;;;;;;;7.80;2.20;;;44.00;1.00;;;;;;4788445;30;20392;-73
2022/06/11 08:52:29;;;;;;;6.90;2.25;;;44.40;1.00;;;;;;4738761;30;20032;-74
2022/06/11 08:55:38;;;;;;;7.13;1.95;;;43.50;1.00;;;;;;4786180;30;20024;-74
2022/06/11 08:58:34;;;;;;;9.23;2.47;;;43.20;1.00;;;;;;4788185;30;20047;-73
2022/06/11 09:01:18;;;;;;;8.52;2.30;;;42.90;1.70;;;;;;4788291;30;20030;-73
2022/06/11 09:03:58;;;;;;;8.45;2.60;;;43.10;1.00;;;;;;4788261;30;20032;-73
2022/06/11 09:06:43;;;;;;;7.60;1.80;;;43.20;3.00;;;;;;4788432;30;20424;-73
2022/06/11 09:09:39;;;;;;;10.82;1.88;;;43.60;1.00;;;;;;4778009;30;20485;-73
2022/06/11 09:12:41;;;;;;;9.68;2.30;;;42.60;4.80;;;;;;4784009;30;20450;-73
2022/06/11 09:15:26;;;;;;;10.35;2.08;;;43.30;1.00;;;;;;4784048;30;20035;-73
2022/06/11 09:18:25;;;;;;;5.05;1.83;;;43.50;1.20;;;;;;4788140;30;20067;-73
2022/06/11 09:21:25;;;;;;;5.70;1.63;;;43.70;4.60;;;;;;4776361;30;20074;-73
2022/06/11 09:24:29;;;;;;;9.52;2.08;;;43.50;4.50;;;;;;4788026;30;20122;-73
2022/06/11 09:27:13;;;;;;;7.53;2.63;;;43.60;4.70;;;;;;4751853;30;20044;-74
2022/06/11 09:30:08;;;;;;;9.88;2.35;;;44.00;9.20;;;;;;4788314;30;20034;-73
2022/06/11 09:33:11;;;;;;;7.55;2.13;;;44.80;3.30;;;;;;4787753;30;20029;-73
2022/06/11 09:36:01;;;;;;;5.93;1.52;;;43.30;3.10;;;;;;4784836;30;20058;-73
2022/06/11 09:38:36;;;;;;;6.47;1.92;;;43.70;6.60;;;;;;4788230;30;20041;-73
2022/06/11 09:41:32;;;;;;;8.00;1.90;;;43.50;9.70;;;;;;4787073;30;20385;-73
2022/06/11 09:44:17;;;;;;;8.10;1.85;;;43.80;7.90;;;;;;4752182;30;20477;-73
2022/06/11 09:47:15;;;;;;;7.68;2.10;;;44.70;10.00;;;;;;4752016;30;20038;-73
2022/06/11 09:50:11;;;;;;;10.63;2.20;;;43.60;10.10;;;;;;4735375;30;20049;-73
2022/06/11 09:53:06;;;;;;;8.93;2.28;;;43.70;11.80;;;;;;4745290;30;20465;-73
2022/06/11 09:55:50;;;;;;;10.82;2.30;;;42.70;11.30;;;;;;4679684;30;20502;-73
2022/06/11 09:58:34;;;;;;;7.45;1.75;;;42.20;14.30;;;;;;4749333;30;20024;-73
2022/06/11 10:01:07;;;;;;;6.95;1.70;;;42.50;9.60;;;;;;4741706;30;20033;-73
2022/06/11 10:04:13;;;;;;;7.65;1.95;;;42.70;14.00;;;;;;4750446;30;20373;-73
2022/06/11 10:06:50;;;;;;;8.90;2.03;;;42.70;12.00;;;;;;4737889;30;20123;-73
2022/06/11 10:09:53;;;;;;;8.38;1.95;;;41.50;12.10;;;;;;4751846;30;20028;-73
2022/06/11 10:12:32;;;;;;;8.10;2.45;;;41.90;10.50;;;;;;4739721;30;20085;-73
2022/06/11 10:15:08;;;;;;;11.57;2.75;;;41.50;14.50;;;;;;4751396;30;20036;-73
2022/06/11 10:18:01;;;;;;;12.07;2.67;;;41.10;16.20;;;;;;4751647;30;20032;-73
2022/06/11 10:20:53;;;;;;;7.90;2.28;;;39.00;14.30;;;;;;4752157;30;20028;-73
2022/06/11 10:23:40;;;;;;;10.95;2.45;;;39.00;20.30;;;;;;4751641;30;20038;-73
2022/06/11 10:26:18;;;;;;;7.35;1.88;;;40.80;15.80;;;;;;4741148;30;20042;-73
2022/06/11 10:28:58;;;;;;;9.48;1.80;;;40.90;17.60;;;;;;4751789;30;20428;-73
2022/06/11 10:31:28;;;;;;;;;;;41.20;13.30;;;;;;4751884;30;20035;-73
2022/06/11 10:34:09;;;;;;;7.32;1.58;;;40.50;12.80;;;;;;4751654;30;19914;-72
2022/06/11 10:36:58;;;;;;;6.07;1.48;;;39.70;13.40;;;;;;4751284;30;20035;-73
2022/06/11 10:39:42;;;;;;;;;;;39.70;15.50;;;;;;4729710;30;20072;-73
2022/06/11 10:42:58;;;;;;;6.75;1.40;;;39.20;16.70;;;;;;4752816;30;20058;-75
2022/06/11 10:45:38;;;;;;;6.53;1.80;;;39.30;21.50;;;;;;4736171;30;20787;-73
2022/06/11 10:48:17;;;;;;;7.30;1.95;;;40.60;10.50;;;;;;4784178;30;20034;-73
2022/06/11 10:50:47;;;;;;;7.68;1.83;;;40.10;22.60;;;;;;4786993;30;20491;-73
2022/06/11 10:57:07;;;;;;;6.70;1.90;;;38.90;23.60;;;;;;4757664;30;20134;-75
2022/06/11 10:59:38;;;;;;;8.70;2.20;;;38.50;22.40;;;;;;4784490;30;20290;-73
2022/06/11 11:02:28;;;;;;;8.50;2.55;;;37.70;29.80;;;;;;4777977;30;20035;-75
2022/06/11 11:05:29;;;;;;;6.97;2.40;;;37.30;32.80;;;;;;4790415;30;20097;-73
2022/06/11 11:07:55;;;;;;;7.93;2.22;;;37.70;36.10;;;;;;4790496;30;20039;-73
2022/06/11 11:10:52;;;;;;;8.50;2.42;;;37.30;37.50;;;;;;4786313;30;20028;-75
2022/06/11 11:14:18;;;;;;;7.88;2.20;;;36.40;42.70;;;;;;4785597;30;20491;-73
2022/06/11 11:16:51;;;;;;;8.57;2.13;;;35.00;48.90;;;;;;4716740;30;20433;-73
2022/06/11 11:19:22;;;;;;;9.25;2.25;;;34.10;53.40;;;;;;4716896;30;20498;-73
2022/06/11 11:22:18;;;;;;;9.27;2.30;;;33.10;59.70;;;;;;4768174;30;20035;-73
2022/06/11 11:24:54;;;;;;;8.95;2.20;;;30.70;69.00;;;;;;4789921;30;20034;-73
2022/06/11 11:27:41;;;;;;;10.25;2.38;;;29.20;66.50;;;;;;4790459;30;20499;-73
2022/06/11 11:30:29;;;;;;;10.15;1.88;;;28.60;80.80;;;;;;4790256;30;20039;-72
2022/06/11 11:33:36;;;;;;;6.45;2.17;;;28.80;88.40;;;;;;4779230;30;20468;-73
2022/06/11 11:36:14;;;;;;;6.55;2.00;;;28.30;87.60;;;;;;4789558;30;20074;-72
2022/06/11 11:38:46;;;;;;;7.88;1.83;;;28.00;87.20;;;;;;4789793;30;20031;-73
2022/06/11 11:41:37;;;;;;;9.60;2.10;;;27.90;91.60;;;;;;4777221;30;20092;-73
2022/06/11 11:44:17;;;;;;;11.82;2.28;;;28.20;89.00;;;;;;4753963;30;20044;-74
2022/06/11 11:47:16;;;;;;;9.52;2.20;;;28.00;86.60;;;;;;4753848;30;20024;-75
2022/06/11 11:49:51;;;;;;;8.68;2.63;;;27.20;87.90;;;;;;4753755;30;20036;-73
2022/06/11 11:52:23;;;;;;;8.63;1.90;;;27.40;92.10;;;;;;4754009;30;20536;-74
2022/06/11 11:57:56;;;;;;;9.10;2.08;;;27.00;94.80;;;;;;4750337;30;20055;-74
2022/06/11 12:01:05;;;;;;;8.48;1.77;;;27.60;92.00;;;;;;4736718;30;20028;-74
2022/06/11 12:04:06;;;;;;;13.27;2.28;;;27.70;88.70;;;;;;4698644;30;20083;-73
2022/06/11 12:06:54;;;;;;;8.30;1.83;;;27.20;89.50;;;;;;4745292;30;20052;-74
2022/06/11 12:09:32;;;;;;;9.20;1.98;;;26.70;93.30;;;;;;4744795;30;20031;-72
2022/06/11 12:12:41;;;;;;;6.18;1.70;;;27.00;93.20;;;;;;4753459;30;20668;-73
2022/06/11 12:15:21;;;;;;;7.93;1.75;;;27.00;92.30;;;;;;4753447;30;20032;-73
2022/06/11 12:18:07;;;;;;;10.13;2.25;;;26.60;93.20;;;;;;4753417;30;20041;-72
2022/06/11 12:21:00;;;;;;;11.70;2.25;;;26.60;93.60;;;;;;4753487;30;20036;-75
2022/06/11 12:24:13;;;;;;;9.55;1.98;;;26.50;93.40;;;;;;4748030;30;20040;-75
2022/06/11 12:26:48;;;;;;;9.18;2.00;;;26.70;95.30;;;;;;4753359;30;20086;-75
2022/06/11 12:29:30;;;;;;;9.15;1.88;;;26.80;93.80;;;;;;4753389;30;20513;-73
2022/06/11 12:32:06;;;;;;;7.78;1.88;;;26.50;94.60;;;;;;4753180;30;20109;-75
2022/06/11 12:34:41;;;;;;;8.73;1.67;;;27.00;94.00;;;;;;4753467;30;20029;-73
2022/06/11 12:37:26;;;;;;;9.38;2.22;;;27.00;93.20;;;;;;4753118;30;20033;-73
2022/06/11 12:40:27;;;;;;;7.40;1.88;;;26.50;94.50;;;;;;4753155;30;20040;-72
2022/06/11 12:43:04;;;;;;;9.23;2.00;;;26.90;92.80;;;;;;4770928;30;20093;-73
2022/06/11 12:45:57;;;;;;;7.68;1.70;;;27.00;93.50;;;;;;4788636;30;20068;-73
2022/06/11 12:48:47;;;;;;;7.22;2.00;;;27.00;95.40;;;;;;4788403;30;20480;-74
2022/06/11 12:51:43;;;;;;;8.40;1.85;;;27.00;92.00;;;;;;4788591;30;20050;-74
2022/06/11 12:54:27;;;;;;;8.75;1.58;;;26.80;93.80;;;;;;4788454;30;20472;-75
2022/06/11 12:57:42;;;;;;;12.85;2.28;;;26.60;93.50;;;;;;4788616;30;20038;-74
2022/06/11 13:00:35;;;;;;;8.77;2.28;;;26.40;93.60;;;;;;4788362;30;20512;-74
2022/06/11 13:03:39;;;;;;;9.50;1.90;;;26.50;93.70;;;;;;4788114;30;20035;-74
2022/06/11 13:06:43;;;;;;;9.90;1.90;;;26.20;95.80;;;;;;4780448;30;20039;-74
2022/06/11 13:09:21;;;;;;;8.65;2.03;;;26.40;96.40;;;;;;4777152;30;20043;-74
2022/06/11 13:12:37;;;;;;;7.25;2.00;;;26.20;96.70;;;;;;4788102;30;20615;-73
2022/06/11 13:15:20;;;;;;;12.48;2.33;;;26.20;97.90;;;;;;4785711;30;20042;-73
2022/06/11 13:17:45;;;;;;;12.77;2.15;;;26.10;94.10;;;;;;4788054;30;20488;-74
2022/06/11 13:20:26;;;;;;;13.40;2.38;;;26.20;95.50;;;;;;4787993;30;20591;-74
2022/06/11 13:23:02;;;;;;;11.27;2.20;;;25.90;96.40;;;;;;4788555;30;20461;-74
2022/06/11 13:26:09;;;;;;;10.55;1.83;;;25.90;98.00;;;;;;4787758;30;21290;-74
2022/06/11 13:29:03;;;;;;;12.88;2.03;;;25.70;96.50;;;;;;4732012;30;20076;-74
2022/06/11 13:31:55;;;;;;;12.05;2.40;;;25.80;97.40;;;;;;4726595;30;20048;-74
2022/06/11 13:34:28;;;;;;;14.63;3.13;;;25.60;96.70;;;;;;4732227;30;20075;-72
2022/06/11 13:37:44;;;;;;;10.68;2.28;;;26.20;96.10;;;;;;4731937;30;20115;-75
2022/06/11 13:40:45;;;;;;;11.70;2.55;;;26.20;98.90;;;;;;4747531;30;20056;-73
2022/06/11 13:43:48;;;;;;;8.82;1.95;;;25.80;99.20;;;;;;4749327;30;20565;-73
2022/06/11 13:46:44;;;;;;;8.70;2.10;;;25.90;97.30;;;;;;4782363;30;20074;-73
2022/06/11 13:49:49;;;;;;;10.95;2.17;;;26.30;97.70;;;;;;4779891;30;20027;-72
2022/06/11 13:55:50;;;;;;;10.32;2.22;;;25.70;98.50;;;;;;4778150;30;20069;-73
2022/06/11 13:58:40;;;;;;;11.55;1.85;;;26.00;99.90;;;;;;4788006;30;20028;-73
2022/06/11 14:01:46;;;;;;;13.23;2.63;;;26.00;98.80;;;;;;4787434;30;20027;-73
2022/06/11 14:04:33;;;;;;;11.85;2.03;;;25.70;99.20;;;;;;4784950;30;20081;-73
2022/06/11 14:07:08;;;;;;;12.50;3.13;;;25.90;99.90;;;;;;4787318;30;20023;-73
2022/06/11 14:12:49;;;;;;;13.35;2.70;;;25.70;99.90;;;;;;4776088;30;20537;-72
2022/06/11 14:15:30;;;;;;;14.10;2.42;;;25.50;99.90;;;;;;4787003;30;20722;-73
2022/06/11 14:18:04;;;;;;;9.80;2.25;;;25.50;99.90;;;;;;4777512;30;20036;-73